Ingrid Oldendorff — CQIE9 — position and weather

sailwx.info

Track history (hours):
 
Tides and Currents Weather Stations Pressure Air Temp Water Temp Dewpoint Dewpoint Depression Visibility Wind Speed Wind Dir Waves Ship Positions

Ingrid Oldendorff

Last reported at 2018-Mar-28 05:08 UTC. Time now 2018-May-22 10:17 UTC.
Position N 35°23' W 010°24'.
Warning: this ship's position is 55 days out of date.

Length 199 m; draft 12 m.

Type: Cargo ship. MMSI: 255805941.

Date/timePositionNaut miles runAvg speedWind from/ knotsBaromVisibWave heightAir tempDewpointWater temp
2018-Mar-28 05:08N 35°23' W 010°24'111.4
2018-Mar-28 05:00N 35°23' W 010°22'611.4
2018-Mar-28 04:30N 35°24' W 010°15'611.6
2018-Mar-28 03:59N 35°25' W 010°08'611.4
2018-Mar-28 03:29N 35°26' W 010°01'1311.4
2018-Mar-28 02:20N 35°28' W 009°45'2211.6
2018-Mar-28 00:26N 35°32' W 009°19'511.6
2018-Mar-27 23:58N 35°33' W 009°12'18311.5
2018-Mar-27 08:04N 35°59' W 005°29'110.3
2018-Mar-27 08:00N 35°59' W 005°28'5 9.8
2018-Mar-27 07:30N 36°00' W 005°22'5 9.6
2018-Mar-27 06:59N 36°02' W 005°16'  
Track history (hours):
 
Tides and Currents Weather Stations Pressure Air Temp Water Temp Dewpoint Dewpoint Depression Visibility Wind Speed Wind Dir Waves Ship Positions

Ingrid Oldendorff

Last reported at 2018-Mar-28 05:08 UTC. Time now 2018-May-22 10:17 UTC.
Position N 35°23' W 010°24'.
Warning: this ship's position is 55 days out of date.

Length 199 m; draft 12 m.

Type: Cargo ship. MMSI: 255805941.

Date/timePositionNaut miles runAvg speedWind from/ knotsBaromVisibWave heightAir tempDewpointWater temp
2018-Mar-28 05:08N 35°23' W 010°24'111.4
2018-Mar-28 05:00N 35°23' W 010°22'611.4
2018-Mar-28 04:30N 35°24' W 010°15'611.6
2018-Mar-28 03:59N 35°25' W 010°08'611.4
2018-Mar-28 03:29N 35°26' W 010°01'1311.4
2018-Mar-28 02:20N 35°28' W 009°45'2211.6
2018-Mar-28 00:26N 35°32' W 009°19'511.6
2018-Mar-27 23:58N 35°33' W 009°12'18311.5
2018-Mar-27 08:04N 35°59' W 005°29'110.3
2018-Mar-27 08:00N 35°59' W 005°28'5 9.8
2018-Mar-27 07:30N 36°00' W 005°22'5 9.6
2018-Mar-27 06:59N 36°02' W 005°16'  

Dump ship's entire track history